Time;durP1;ratioP1;P1;durP2;ratioP2;P2;SDS_P1;SDS_P2;PMS_P1;PMS_P2;Temp;Humidity;BMP_temperature;BMP_pressure;BME280_temperature;BME280_humidity;BME280_pressure;Samples;Min_cycle;Max_cycle;Signal;HPM_P1;HPM_P2
2023/08/28 00:01:14;;;;;;;23.45;14.23;;;;;;;;;;4936127;29;20235;-60
2023/08/28 00:03:42;;;;;;;20.23;14.40;;;;;;;;;;4936147;29;20249;-60
2023/08/28 00:06:09;;;;;;;21.75;13.05;;;;;;;;;;4935976;29;20649;-59
2023/08/28 00:08:37;;;;;;;17.95;11.68;;;;;;;;;;4936363;29;20212;-61
2023/08/28 00:11:04;;;;;;;15.82;12.20;;;;;;;;;;4936274;29;20219;-60
2023/08/28 00:13:31;;;;;;;14.93;12.48;;;;;;;;;;4936171;29;20208;-60
2023/08/28 00:15:58;;;;;;;15.43;12.20;;;;;;;;;;4936011;29;20219;-60
2023/08/28 00:18:26;;;;;;;18.40;12.55;;;;;;;;;;4935987;29;20200;-60
2023/08/28 00:20:53;;;;;;;16.45;12.40;;;;;;;;;;4936017;29;20290;-61
2023/08/28 00:23:20;;;;;;;18.00;12.32;;;;;;;;;;4934666;29;20204;-61
2023/08/28 00:25:47;;;;;;;20.45;11.88;;;;;;;;;;4936106;29;20287;-60
2023/08/28 00:28:15;;;;;;;16.10;11.77;;;;;;;;;;4937766;29;20208;-60
2023/08/28 00:30:42;;;;;;;15.27;11.73;;;;;;;;;;4939840;29;20295;-61
2023/08/28 00:33:10;;;;;;;14.18;12.00;;;;;;;;;;4938277;29;20622;-60
2023/08/28 00:35:37;;;;;;;15.35;12.20;;;;;;;;;;4938287;29;20215;-60
2023/08/28 00:38:04;;;;;;;17.85;12.15;;;;;;;;;;4939799;29;20204;-60
2023/08/28 00:40:31;;;;;;;13.60;10.38;;;;;;;;;;4954223;29;20244;-60
2023/08/28 00:43:00;;;;;;;13.82;11.68;;;;;;;;;;4954281;29;20208;-61
2023/08/28 00:45:29;;;;;;;16.88;12.77;;;;;;;;;;4954194;28;20211;-60
2023/08/28 00:47:56;;;;;;;18.70;12.07;;;;;;;;;;4938070;29;20208;-60
2023/08/28 00:50:25;;;;;;;17.48;13.32;;;;;;;;;;4954422;28;20215;-60
2023/08/28 00:52:52;;;;;;;17.98;13.65;;;;;;;;;;4939583;29;20219;-60
2023/08/28 00:55:19;;;;;;;20.58;14.95;;;;;;;;;;4937925;29;20255;-60
2023/08/28 00:57:46;;;;;;;22.15;15.25;;;;;;;;;;4938043;29;20212;-60
2023/08/28 01:00:13;;;;;;;20.05;14.38;;;;;;;;;;4937952;29;20228;-60
2023/08/28 01:02:41;;;;;;;22.73;13.73;;;;;;;;;;4922168;29;20665;-60
2023/08/28 01:05:08;;;;;;;22.48;16.10;;;;;;;;;;4954130;29;20211;-61
2023/08/28 01:07:51;;;;;;;29.35;17.15;;;;;;;;;;4939070;29;20200;-60
2023/08/28 01:10:27;;;;;;;23.30;16.73;;;;;;;;;;4953820;29;20212;-60
2023/08/28 01:13:09;;;;;;;28.45;17.63;;;;;;;;;;4937762;29;20212;-61
2023/08/28 01:15:37;;;;;;;23.73;17.33;;;;;;;;;;4970278;28;20208;-60
2023/08/28 01:18:05;;;;;;;25.30;17.58;;;;;;;;;;4937745;29;20579;-61
2023/08/28 01:20:33;;;;;;;27.80;18.48;;;;;;;;;;4937485;29;20231;-60
2023/08/28 01:23:24;;;;;;;25.60;19.02;;;;;;;;;;4921951;29;20215;-61
2023/08/28 01:25:52;;;;;;;27.35;19.90;;;;;;;;;;4922271;29;20215;-61
2023/08/28 01:28:21;;;;;;;26.15;18.70;;;;;;;;;;4922073;29;20601;-61
2023/08/28 01:30:48;;;;;;;26.17;19.25;;;;;;;;;;4953487;29;20215;-60
2023/08/28 01:33:18;;;;;;;25.10;19.33;;;;;;;;;;4937304;29;20204;-61
2023/08/28 01:35:52;;;;;;;27.90;20.08;;;;;;;;;;4953131;28;20618;-60
2023/08/28 01:38:32;;;;;;;30.15;19.70;;;;;;;;;;4953690;28;20212;-61
2023/08/28 01:41:01;;;;;;;32.15;19.73;;;;;;;;;;4936602;29;20247;-61
2023/08/28 01:43:31;;;;;;;32.50;20.42;;;;;;;;;;4921665;29;20217;-60
2023/08/28 01:45:58;;;;;;;32.15;19.33;;;;;;;;;;4938100;29;20693;-61
2023/08/28 01:48:28;;;;;;;29.13;19.30;;;;;;;;;;4938421;29;20247;-60
2023/08/28 01:50:55;;;;;;;29.92;18.52;;;;;;;;;;4938126;29;20267;-60
2023/08/28 01:53:23;;;;;;;29.65;20.02;;;;;;;;;;4937002;29;20215;-61
2023/08/28 01:56:07;;;;;;;28.33;19.58;;;;;;;;;;4937511;29;20199;-61
2023/08/28 01:58:40;;;;;;;30.98;20.45;;;;;;;;;;4952791;29;20215;-61
2023/08/28 02:01:07;;;;;;;29.33;19.33;;;;;;;;;;4952734;28;20270;-60
2023/08/28 02:03:38;;;;;;;26.60;19.17;;;;;;;;;;4952876;29;20221;-61
2023/08/28 02:06:06;;;;;;;28.35;19.73;;;;;;;;;;4936715;29;20207;-60
2023/08/28 02:08:34;;;;;;;26.73;19.73;;;;;;;;;;4952873;29;20208;-61
2023/08/28 02:11:01;;;;;;;36.80;20.60;;;;;;;;;;4952593;29;20259;-61
2023/08/28 02:13:28;;;;;;;25.48;18.80;;;;;;;;;;4937724;29;20215;-60
2023/08/28 02:15:55;;;;;;;31.38;19.63;;;;;;;;;;4937724;29;20208;-61
2023/08/28 02:18:23;;;;;;;28.60;19.55;;;;;;;;;;4936752;29;20564;-61
2023/08/28 02:20:50;;;;;;;24.25;18.33;;;;;;;;;;4936535;29;20272;-60
2023/08/28 02:23:19;;;;;;;28.13;19.73;;;;;;;;;;4968404;28;20208;-60
2023/08/28 02:25:48;;;;;;;30.33;19.52;;;;;;;;;;4936322;29;20204;-60
2023/08/28 02:28:18;;;;;;;29.08;18.83;;;;;;;;;;4936460;29;20208;-61
2023/08/28 02:30:45;;;;;;;30.80;18.92;;;;;;;;;;4937587;29;20328;-61
2023/08/28 02:33:14;;;;;;;31.17;18.92;;;;;;;;;;4937335;29;20690;-60
2023/08/28 02:35:42;;;;;;;29.27;18.27;;;;;;;;;;4936140;29;20295;-61
2023/08/28 02:38:10;;;;;;;29.75;17.98;;;;;;;;;;4936281;29;20231;-61
2023/08/28 02:40:38;;;;;;;29.95;18.52;;;;;;;;;;4952108;29;20251;-60
2023/08/28 02:43:07;;;;;;;26.25;18.10;;;;;;;;;;4951868;29;20208;-61
2023/08/28 02:45:35;;;;;;;23.60;17.80;;;;;;;;;;4937162;29;20271;-60
2023/08/28 02:48:06;;;;;;;29.98;17.73;;;;;;;;;;4952088;29;20204;-61
2023/08/28 02:50:35;;;;;;;23.38;18.00;;;;;;;;;;4935899;29;20678;-61
2023/08/28 02:53:03;;;;;;;25.90;18.73;;;;;;;;;;4935823;29;20669;-60
2023/08/28 02:55:39;;;;;;;32.08;17.23;;;;;;;;;;4936004;29;20311;-61
2023/08/28 02:58:09;;;;;;;28.45;18.60;;;;;;;;;;4967949;28;20200;-61
2023/08/28 03:00:41;;;;;;;28.15;17.52;;;;;;;;;;4935977;29;20310;-61
2023/08/28 03:03:09;;;;;;;27.67;18.25;;;;;;;;;;4935543;29;20220;-61
2023/08/28 03:05:37;;;;;;;26.38;17.55;;;;;;;;;;4935545;29;20609;-61
2023/08/28 03:08:04;;;;;;;28.45;18.27;;;;;;;;;;4936526;29;20216;-61
2023/08/28 03:10:34;;;;;;;24.75;17.83;;;;;;;;;;4936161;29;20212;-61
2023/08/28 03:13:02;;;;;;;27.50;18.10;;;;;;;;;;4934268;29;20208;-61
2023/08/28 03:15:33;;;;;;;27.25;17.90;;;;;;;;;;4935851;29;20212;-60
2023/08/28 03:18:01;;;;;;;26.20;17.65;;;;;;;;;;4949186;29;20208;-60
2023/08/28 03:20:28;;;;;;;26.67;18.48;;;;;;;;;;4934307;29;20311;-61
2023/08/28 03:22:56;;;;;;;24.35;17.48;;;;;;;;;;4934527;29;20550;-61
2023/08/28 03:25:24;;;;;;;27.05;17.70;;;;;;;;;;4965163;28;20263;-61
2023/08/28 03:27:51;;;;;;;25.88;17.13;;;;;;;;;;4949139;29;20208;-60
2023/08/28 03:30:18;;;;;;;25.10;17.00;;;;;;;;;;4935428;29;20282;-60
2023/08/28 03:32:46;;;;;;;24.42;16.40;;;;;;;;;;4978544;28;20204;-61
2023/08/28 03:35:13;;;;;;;22.30;15.85;;;;;;;;;;4952666;29;20223;-60
2023/08/28 03:37:41;;;;;;;23.63;16.73;;;;;;;;;;4953439;29;20215;-61
2023/08/28 03:40:09;;;;;;;24.67;16.92;;;;;;;;;;4952383;29;20259;-60
2023/08/28 03:42:36;;;;;;;27.50;15.93;;;;;;;;;;4953385;28;20207;-60
2023/08/28 03:45:03;;;;;;;24.85;16.77;;;;;;;;;;4953209;29;20251;-60
2023/08/28 03:47:31;;;;;;;21.52;15.95;;;;;;;;;;4944777;29;20214;-60
2023/08/28 03:49:58;;;;;;;23.23;15.50;;;;;;;;;;4963772;28;20524;-62
2023/08/28 03:52:25;;;;;;;24.50;16.13;;;;;;;;;;4952022;29;20199;-62
2023/08/28 03:54:52;;;;;;;26.52;16.35;;;;;;;;;;4969735;28;20196;-61
2023/08/28 03:57:20;;;;;;;20.83;15.63;;;;;;;;;;4950617;29;20199;-61
2023/08/28 03:59:47;;;;;;;21.38;14.98;;;;;;;;;;4953322;29;20587;-62
2023/08/28 04:02:14;;;;;;;23.88;14.65;;;;;;;;;;4951801;28;20219;-60
2023/08/28 04:04:42;;;;;;;21.80;14.50;;;;;;;;;;4951208;29;20262;-58
2023/08/28 04:07:24;;;;;;;20.77;14.80;;;;;;;;;;4938553;29;20681;-59
2023/08/28 04:09:53;;;;;;;21.88;15.00;;;;;;;;;;4952183;28;20230;-59
2023/08/28 04:12:21;;;;;;;23.52;15.00;;;;;;;;;;4973200;28;20227;-59
2023/08/28 04:14:48;;;;;;;21.45;14.48;;;;;;;;;;4956810;28;20234;-60
2023/08/28 04:17:16;;;;;;;21.20;14.77;;;;;;;;;;4956803;29;20231;-59
2023/08/28 04:19:43;;;;;;;22.08;14.65;;;;;;;;;;4958052;28;20236;-60
2023/08/28 04:22:11;;;;;;;16.35;11.88;;;;;;;;;;4956515;29;20234;-60
2023/08/28 04:24:38;;;;;;;20.20;12.93;;;;;;;;;;4957381;28;20231;-60
2023/08/28 04:27:06;;;;;;;15.43;12.18;;;;;;;;;;4958159;28;20239;-59
2023/08/28 04:29:33;;;;;;;16.73;12.35;;;;;;;;;;4957612;28;20234;-59
2023/08/28 04:32:00;;;;;;;18.50;11.45;;;;;;;;;;4956899;29;20229;-59
2023/08/28 04:34:27;;;;;;;16.10;11.38;;;;;;;;;;4956288;29;20599;-58
2023/08/28 04:36:54;;;;;;;17.08;10.60;;;;;;;;;;4970389;28;20585;-59
2023/08/28 04:39:23;;;;;;;18.10;12.13;;;;;;;;;;4956486;28;20223;-58
2023/08/28 04:41:52;;;;;;;17.75;11.32;;;;;;;;;;4956692;29;20712;-59
2023/08/28 04:44:19;;;;;;;13.85;9.93;;;;;;;;;;4987973;28;20849;-59
2023/08/28 04:46:47;;;;;;;15.73;8.77;;;;;;;;;;4957627;29;20223;-60
2023/08/28 04:49:15;;;;;;;12.73;8.63;;;;;;;;;;4955813;28;20231;-59
2023/08/28 04:51:42;;;;;;;11.82;7.38;;;;;;;;;;4971286;28;20231;-59
2023/08/28 04:54:09;;;;;;;10.57;7.82;;;;;;;;;;4955178;29;20286;-55
2023/08/28 04:56:37;;;;;;;12.35;7.32;;;;;;;;;;4955013;29;20584;-51
2023/08/28 04:59:05;;;;;;;9.77;6.68;;;;;;;;;;4956242;29;20574;-53
2023/08/28 05:01:32;;;;;;;10.40;6.90;;;;;;;;;;4957443;28;20239;-57
2023/08/28 05:04:00;;;;;;;9.95;6.40;;;;;;;;;;4956302;29;20318;-57
2023/08/28 05:06:27;;;;;;;7.60;6.45;;;;;;;;;;4956053;28;20227;-58
2023/08/28 05:08:54;;;;;;;10.00;6.65;;;;;;;;;;4955787;29;20768;-57
2023/08/28 05:11:22;;;;;;;10.20;6.63;;;;;;;;;;4955629;28;20238;-52
2023/08/28 05:13:49;;;;;;;10.90;7.05;;;;;;;;;;4987758;28;20593;-57
2023/08/28 05:16:17;;;;;;;9.85;6.60;;;;;;;;;;4955321;28;20263;-56
2023/08/28 05:18:44;;;;;;;10.30;6.70;;;;;;;;;;4955412;28;20203;-58
2023/08/28 05:21:11;;;;;;;10.63;6.28;;;;;;;;;;4956629;29;20227;-56
2023/08/28 05:23:38;;;;;;;11.95;6.75;;;;;;;;;;4988320;28;20239;-58
2023/08/28 05:26:07;;;;;;;12.50;6.95;;;;;;;;;;4956688;29;20203;-57
2023/08/28 05:28:38;;;;;;;8.45;6.05;;;;;;;;;;4988735;28;20298;-52
2023/08/28 05:31:06;;;;;;;10.68;6.65;;;;;;;;;;4956528;29;20231;-57
2023/08/28 05:33:35;;;;;;;8.10;6.13;;;;;;;;;;4949617;29;20231;-51
2023/08/28 05:36:03;;;;;;;8.65;6.35;;;;;;;;;;4969462;28;20547;-54
2023/08/28 05:38:30;;;;;;;8.98;6.35;;;;;;;;;;4938597;29;20204;-57
2023/08/28 05:40:58;;;;;;;8.77;6.93;;;;;;;;;;4938737;29;20248;-56
2023/08/28 05:43:25;;;;;;;9.00;6.28;;;;;;;;;;4937271;29;20200;-56
2023/08/28 05:45:52;;;;;;;9.57;6.10;;;;;;;;;;4938262;29;20208;-56
2023/08/28 05:48:19;;;;;;;10.30;6.45;;;;;;;;;;4938285;29;20208;-56
2023/08/28 05:50:50;;;;;;;8.95;6.00;;;;;;;;;;4938155;29;20201;-57
2023/08/28 05:53:17;;;;;;;12.77;6.20;;;;;;;;;;4949205;29;20207;-57
2023/08/28 05:55:47;;;;;;;11.38;6.25;;;;;;;;;;4957357;28;20207;-54
2023/08/28 05:58:14;;;;;;;9.93;6.35;;;;;;;;;;4971958;28;20203;-59
2023/08/28 06:00:42;;;;;;;10.65;6.10;;;;;;;;;;4956290;28;20331;-57
2023/08/28 06:03:09;;;;;;;8.23;5.50;;;;;;;;;;4954327;29;20303;-57
2023/08/28 06:05:38;;;;;;;10.60;5.60;;;;;;;;;;4954191;29;20478;-57
2023/08/28 06:08:05;;;;;;;8.70;5.57;;;;;;;;;;4940234;29;20203;-56
2023/08/28 06:10:38;;;;;;;9.05;5.65;;;;;;;;;;4956845;28;20218;-58
2023/08/28 06:13:05;;;;;;;7.35;5.75;;;;;;;;;;4956746;28;20204;-57
2023/08/28 06:15:33;;;;;;;8.63;6.03;;;;;;;;;;4971895;28;20260;-55
2023/08/28 06:17:59;;;;;;;6.82;5.40;;;;;;;;;;4955859;29;20214;-58
2023/08/28 06:20:28;;;;;;;8.52;5.68;;;;;;;;;;4955572;29;20207;-57
2023/08/28 06:22:55;;;;;;;6.90;5.45;;;;;;;;;;4936493;29;20258;-58
2023/08/28 06:25:23;;;;;;;8.23;4.80;;;;;;;;;;4935892;29;20578;-57
2023/08/28 06:27:50;;;;;;;6.90;3.20;;;;;;;;;;4937243;29;20713;-57
2023/08/28 06:30:17;;;;;;;5.22;3.38;;;;;;;;;;4976209;28;20692;-58
2023/08/28 06:32:44;;;;;;;4.00;3.00;;;;;;;;;;4954864;29;20262;-57
2023/08/28 06:35:11;;;;;;;3.25;2.58;;;;;;;;;;4956066;28;20203;-57
2023/08/28 06:37:38;;;;;;;2.60;2.15;;;;;;;;;;4955718;28;20207;-58
2023/08/28 06:40:08;;;;;;;3.42;2.58;;;;;;;;;;4955724;28;20239;-57
2023/08/28 06:42:36;;;;;;;2.88;1.88;;;;;;;;;;4955738;29;20570;-56
2023/08/28 06:45:07;;;;;;;2.35;1.70;;;;;;;;;;4968854;28;20195;-58
2023/08/28 06:47:34;;;;;;;3.58;2.00;;;;;;;;;;4955839;28;20626;-56
2023/08/28 06:50:01;;;;;;;2.22;1.98;;;;;;;;;;4953279;28;20224;-58
2023/08/28 06:52:28;;;;;;;5.00;2.35;;;;;;;;;;4956044;28;20210;-57
2023/08/28 06:54:56;;;;;;;3.15;2.38;;;;;;;;;;4955616;28;20658;-58
2023/08/28 06:57:22;;;;;;;3.42;2.13;;;;;;;;;;4953400;29;20216;-56
2023/08/28 06:59:50;;;;;;;5.00;2.00;;;;;;;;;;4955482;28;20211;-58
2023/08/28 07:02:17;;;;;;;3.40;2.00;;;;;;;;;;4955337;28;20642;-58
2023/08/28 07:04:44;;;;;;;4.15;2.03;;;;;;;;;;4955431;28;20203;-58
2023/08/28 07:07:15;;;;;;;3.92;1.90;;;;;;;;;;4955620;29;20199;-57
2023/08/28 07:09:42;;;;;;;2.38;1.90;;;;;;;;;;4952305;29;20200;-52
2023/08/28 07:12:09;;;;;;;1.95;1.60;;;;;;;;;;4955402;28;20192;-58
2023/08/28 07:14:36;;;;;;;2.22;1.63;;;;;;;;;;4955189;28;20207;-58
2023/08/28 07:17:03;;;;;;;2.88;1.75;;;;;;;;;;4954521;28;20203;-58
2023/08/28 07:19:30;;;;;;;1.50;1.00;;;;;;;;;;4954901;28;20196;-56
2023/08/28 07:21:59;;;;;;;1.08;0.88;;;;;;;;;;4954898;28;20222;-58
2023/08/28 07:24:27;;;;;;;1.90;1.45;;;;;;;;;;4954867;28;20251;-56
2023/08/28 07:26:54;;;;;;;1.80;0.98;;;;;;;;;;4955356;28;20302;-57
2023/08/28 07:29:21;;;;;;;1.55;0.98;;;;;;;;;;4952693;29;20575;-55
2023/08/28 07:31:48;;;;;;;1.08;0.90;;;;;;;;;;4954735;29;20223;-58
2023/08/28 07:34:15;;;;;;;1.83;1.00;;;;;;;;;;4955169;29;20199;-59
2023/08/28 07:36:44;;;;;;;1.55;0.80;;;;;;;;;;4952458;28;20225;-55
2023/08/28 07:39:11;;;;;;;1.83;0.88;;;;;;;;;;4954543;29;20211;-58
2023/08/28 07:41:38;;;;;;;1.58;0.95;;;;;;;;;;4954571;29;20333;-57
2023/08/28 07:44:06;;;;;;;1.58;1.17;;;;;;;;;;4955134;28;20191;-58
2023/08/28 07:46:33;;;;;;;1.92;1.00;;;;;;;;;;4954623;28;20219;-58
2023/08/28 07:49:00;;;;;;;1.00;0.75;;;;;;;;;;4954883;28;20553;-58
2023/08/28 07:51:27;;;;;;;1.52;0.90;;;;;;;;;;4955002;28;20195;-57
2023/08/28 07:53:55;;;;;;;2.35;1.20;;;;;;;;;;4954816;28;20203;-57
2023/08/28 07:56:22;;;;;;;1.20;0.80;;;;;;;;;;4951494;29;20211;-59
2023/08/28 07:58:50;;;;;;;1.65;1.23;;;;;;;;;;4954984;28;20250;-59
2023/08/28 08:01:17;;;;;;;2.17;1.10;;;;;;;;;;4954765;28;20199;-58
2023/08/28 08:03:44;;;;;;;4.60;0.88;;;;;;;;;;4954684;28;20203;-58
2023/08/28 08:06:11;;;;;;;1.20;0.98;;;;;;;;;;4954879;29;20203;-58
2023/08/28 08:08:39;;;;;;;1.00;0.90;;;;;;;;;;4954836;28;20210;-57
2023/08/28 08:11:06;;;;;;;1.02;0.85;;;;;;;;;;4954672;28;20203;-56
2023/08/28 08:13:33;;;;;;;1.27;1.00;;;;;;;;;;4950068;29;20216;-59
2023/08/28 08:16:00;;;;;;;2.72;0.70;;;;;;;;;;4953231;28;20218;-60
2023/08/28 08:18:27;;;;;;;1.60;0.93;;;;;;;;;;4952698;28;20258;-60
2023/08/28 08:20:54;;;;;;;1.67;1.00;;;;;;;;;;4949618;28;20200;-60
2023/08/28 08:23:22;;;;;;;1.83;1.17;;;;;;;;;;4936061;28;20224;-60
2023/08/28 08:25:51;;;;;;;0.90;0.70;;;;;;;;;;4935290;28;20211;-60
2023/08/28 08:28:19;;;;;;;1.60;0.90;;;;;;;;;;4937612;28;20248;-60
2023/08/28 08:30:46;;;;;;;1.05;0.80;;;;;;;;;;4939916;28;20201;-60
2023/08/28 08:33:13;;;;;;;1.88;0.85;;;;;;;;;;4940764;28;20281;-60
2023/08/28 08:35:40;;;;;;;1.15;0.90;;;;;;;;;;4952760;28;20565;-60
2023/08/28 08:38:08;;;;;;;1.05;0.65;;;;;;;;;;4950927;28;20672;-62
2023/08/28 08:40:39;;;;;;;2.80;0.90;;;;;;;;;;4952331;28;20234;-58
2023/08/28 08:43:08;;;;;;;0.90;0.80;;;;;;;;;;4964517;28;20744;-61
2023/08/28 08:45:37;;;;;;;0.57;0.57;;;;;;;;;;4952804;28;20722;-59
2023/08/28 08:48:06;;;;;;;1.10;0.70;;;;;;;;;;4952144;28;20208;-61
2023/08/28 08:50:36;;;;;;;1.23;0.77;;;;;;;;;;4952245;28;20200;-60
2023/08/28 08:53:10;;;;;;;2.65;0.75;;;;;;;;;;4941750;28;20222;-60
2023/08/28 08:55:44;;;;;;;1.70;0.93;;;;;;;;;;4959501;28;20358;-59
2023/08/28 08:58:13;;;;;;;1.60;0.90;;;;;;;;;;4940814;28;20295;-60
2023/08/28 09:00:43;;;;;;;0.90;0.60;;;;;;;;;;4938732;28;20208;-60
2023/08/28 09:03:15;;;;;;;2.15;0.95;;;;;;;;;;4941227;28;20677;-60
2023/08/28 09:05:44;;;;;;;1.02;0.70;;;;;;;;;;4953320;28;20290;-57
2023/08/28 09:08:12;;;;;;;1.67;1.05;;;;;;;;;;4952963;28;20205;-59
2023/08/28 09:10:43;;;;;;;1.02;0.80;;;;;;;;;;4949876;28;20208;-58
2023/08/28 09:13:10;;;;;;;4.03;1.00;;;;;;;;;;4949168;28;20583;-59
2023/08/28 09:15:37;;;;;;;1.38;0.88;;;;;;;;;;4945667;28;20219;-59
2023/08/28 09:18:05;;;;;;;0.88;0.63;;;;;;;;;;4940299;28;20208;-58
2023/08/28 09:20:32;;;;;;;1.23;1.00;;;;;;;;;;4942850;28;20644;-55
2023/08/28 09:22:59;;;;;;;1.05;0.70;;;;;;;;;;4956577;28;20252;-58
2023/08/28 09:25:26;;;;;;;2.45;0.90;;;;;;;;;;4955881;29;20320;-58
2023/08/28 09:27:55;;;;;;;0.80;0.60;;;;;;;;;;4957509;28;20199;-56
2023/08/28 09:30:29;;;;;;;1.63;1.00;;;;;;;;;;4957107;28;20204;-58
2023/08/28 09:32:59;;;;;;;1.85;0.98;;;;;;;;;;4954904;29;20206;-59
2023/08/28 09:35:28;;;;;;;1.10;0.80;;;;;;;;;;4956897;29;20246;-59
2023/08/28 09:37:59;;;;;;;2.40;1.17;;;;;;;;;;4954780;28;20203;-59
2023/08/28 09:40:31;;;;;;;2.28;1.33;;;;;;;;;;4957261;28;20255;-59
2023/08/28 09:43:00;;;;;;;1.63;0.95;;;;;;;;;;4955064;29;20237;-58
2023/08/28 09:45:34;;;;;;;1.60;1.00;;;;;;;;;;4956821;28;20207;-59
2023/08/28 09:48:05;;;;;;;1.20;0.90;;;;;;;;;;4955743;29;20183;-59
2023/08/28 09:50:34;;;;;;;2.40;1.10;;;;;;;;;;4956870;28;20749;-59
2023/08/28 09:53:13;;;;;;;9.65;2.50;;;;;;;;;;4956781;28;20206;-59
2023/08/28 09:55:51;;;;;;;5.72;1.77;;;;;;;;;;4954952;29;20207;-57
2023/08/28 09:58:23;;;;;;;4.20;1.02;;;;;;;;;;4954709;29;20537;-58
2023/08/28 10:00:51;;;;;;;1.23;1.08;;;;;;;;;;4955931;28;20195;-59
2023/08/28 10:03:21;;;;;;;1.77;1.08;;;;;;;;;;4956749;28;20684;-57
2023/08/28 10:05:50;;;;;;;1.05;0.93;;;;;;;;;;4956585;29;20195;-59
2023/08/28 10:08:17;;;;;;;1.65;1.00;;;;;;;;;;4952849;28;20223;-61
2023/08/28 10:10:48;;;;;;;1.00;0.90;;;;;;;;;;4955025;28;20218;-61
2023/08/28 10:13:19;;;;;;;1.30;0.93;;;;;;;;;;4953333;28;20211;-61
2023/08/28 10:15:58;;;;;;;1.42;1.00;;;;;;;;;;4953435;28;20204;-60
2023/08/28 10:18:49;;;;;;;1.90;0.80;;;;;;;;;;4952243;28;20191;-60
2023/08/28 10:21:20;;;;;;;1.40;0.90;;;;;;;;;;4969316;28;20227;-60
2023/08/28 10:23:48;;;;;;;1.13;0.90;;;;;;;;;;4985978;28;20227;-60
2023/08/28 10:26:15;;;;;;;2.85;0.80;;;;;;;;;;4953581;28;20204;-61
2023/08/28 10:28:43;;;;;;;1.90;1.00;;;;;;;;;;4949466;28;20207;-60
2023/08/28 10:31:11;;;;;;;1.05;0.82;;;;;;;;;;4954184;28;20203;-59
2023/08/28 10:33:38;;;;;;;2.65;1.27;;;;;;;;;;4952029;28;20238;-60
2023/08/28 10:36:10;;;;;;;3.20;1.10;;;;;;;;;;4954846;28;20203;-60
2023/08/28 10:39:00;;;;;;;1.85;1.08;;;;;;;;;;4952657;28;20203;-60
2023/08/28 10:41:28;;;;;;;1.25;0.80;;;;;;;;;;4953692;28;20556;-61
2023/08/28 10:43:58;;;;;;;1.77;1.10;;;;;;;;;;4953410;28;20307;-60
2023/08/28 10:46:28;;;;;;;1.30;0.90;;;;;;;;;;4952214;28;20206;-61
2023/08/28 10:49:00;;;;;;;2.38;0.98;;;;;;;;;;4945169;28;20200;-60
2023/08/28 10:51:32;;;;;;;1.58;1.00;;;;;;;;;;4947313;28;20665;-61
2023/08/28 10:54:04;;;;;;;2.55;1.10;;;;;;;;;;4942404;28;20234;-60
2023/08/28 10:56:33;;;;;;;2.17;0.80;;;;;;;;;;4936412;28;20209;-61
2023/08/28 10:59:23;;;;;;;1.10;0.88;;;;;;;;;;4949756;28;20208;-60
2023/08/28 11:02:00;;;;;;;1.35;0.88;;;;;;;;;;4939186;28;20661;-60
2023/08/28 11:04:37;;;;;;;5.97;0.70;;;;;;;;;;4939918;28;20200;-60
2023/08/28 11:07:09;;;;;;;1.40;0.85;;;;;;;;;;4937019;28;20274;-60
2023/08/28 11:09:37;;;;;;;1.52;1.15;;;;;;;;;;4965893;28;20204;-60
2023/08/28 11:12:10;;;;;;;1.17;0.70;;;;;;;;;;4940919;28;20603;-60
2023/08/28 11:14:39;;;;;;;3.78;0.80;;;;;;;;;;4938631;28;20200;-60
2023/08/28 11:17:21;;;;;;;0.90;0.80;;;;;;;;;;4936722;28;20572;-61
2023/08/28 11:19:54;;;;;;;1.20;1.00;;;;;;;;;;4950442;28;20207;-59
2023/08/28 11:22:40;;;;;;;1.15;0.90;;;;;;;;;;4942890;28;20191;-59
2023/08/28 11:25:08;;;;;;;1.05;0.85;;;;;;;;;;4936153;28;20551;-60
2023/08/28 11:27:47;;;;;;;1.42;0.90;;;;;;;;;;4936086;28;20199;-60
2023/08/28 11:30:21;;;;;;;1.33;0.80;;;;;;;;;;4936219;28;20200;-59
2023/08/28 11:32:51;;;;;;;1.02;0.93;;;;;;;;;;4944395;28;20210;-60
2023/08/28 11:35:20;;;;;;;1.58;0.90;;;;;;;;;;4935976;28;20226;-60
2023/08/28 11:37:50;;;;;;;1.00;0.90;;;;;;;;;;4936289;28;20558;-60
2023/08/28 11:40:19;;;;;;;1.63;1.00;;;;;;;;;;4935735;28;20250;-60
2023/08/28 11:42:49;;;;;;;1.65;0.90;;;;;;;;;;4943963;28;20231;-59
2023/08/28 11:45:22;;;;;;;1.02;0.82;;;;;;;;;;4936179;28;20620;-61
2023/08/28 11:47:53;;;;;;;1.73;0.85;;;;;;;;;;4935480;28;20199;-58
2023/08/28 11:50:20;;;;;;;3.58;0.88;;;;;;;;;;4953684;28;20227;-60
2023/08/28 11:52:48;;;;;;;0.93;0.70;;;;;;;;;;4946755;28;20210;-60
2023/08/28 11:55:15;;;;;;;1.02;0.90;;;;;;;;;;4935592;28;20256;-60
2023/08/28 11:57:43;;;;;;;1.08;0.77;;;;;;;;;;4935706;28;20267;-60
2023/08/28 12:00:14;;;;;;;0.80;0.80;;;;;;;;;;4947555;28;20207;-60
2023/08/28 12:02:44;;;;;;;1.42;0.80;;;;;;;;;;4984924;28;20215;-60
2023/08/28 12:05:12;;;;;;;1.10;0.80;;;;;;;;;;4950502;28;20217;-60
2023/08/28 12:07:43;;;;;;;3.40;0.90;;;;;;;;;;4947371;28;20203;-60
2023/08/28 12:10:12;;;;;;;1.20;0.73;;;;;;;;;;4945035;28;20196;-59
2023/08/28 12:12:39;;;;;;;0.85;0.70;;;;;;;;;;4972348;28;20203;-60
2023/08/28 12:15:08;;;;;;;1.65;0.70;;;;;;;;;;4936823;28;20215;-60
2023/08/28 12:17:36;;;;;;;1.42;0.60;;;;;;;;;;4935601;28;20196;-60
2023/08/28 12:20:10;;;;;;;3.35;0.80;;;;;;;;;;4935892;28;20208;-60
2023/08/28 12:22:44;;;;;;;0.73;0.60;;;;;;;;;;4948845;28;20207;-60
2023/08/28 12:25:11;;;;;;;1.55;0.75;;;;;;;;;;4939951;28;20665;-60
2023/08/28 12:27:38;;;;;;;4.68;0.70;;;;;;;;;;4944095;28;20218;-60
2023/08/28 12:30:19;;;;;;;4.55;0.90;;;;;;;;;;4958662;28;20254;-60
2023/08/28 12:32:52;;;;;;;1.35;0.70;;;;;;;;;;4955689;28;20202;-60
2023/08/28 12:35:21;;;;;;;1.80;0.85;;;;;;;;;;4948064;28;20318;-60
2023/08/28 12:37:51;;;;;;;3.17;0.70;;;;;;;;;;4957908;28;20231;-62
2023/08/28 12:40:19;;;;;;;2.67;1.00;;;;;;;;;;4958723;28;20239;-60
2023/08/28 12:42:47;;;;;;;1.65;0.90;;;;;;;;;;4953828;28;20227;-60
2023/08/28 12:45:14;;;;;;;0.70;0.68;;;;;;;;;;4952882;28;20257;-61
2023/08/28 12:47:41;;;;;;;1.40;0.90;;;;;;;;;;4955967;28;20235;-61
2023/08/28 12:50:10;;;;;;;1.33;0.70;;;;;;;;;;4967371;28;20214;-61
2023/08/28 12:52:37;;;;;;;1.63;0.93;;;;;;;;;;4956368;28;20227;-62
2023/08/28 12:55:04;;;;;;;1.02;0.90;;;;;;;;;;4942216;28;20303;-62
2023/08/28 12:57:32;;;;;;;1.85;1.00;;;;;;;;;;4940657;28;20232;-62
2023/08/28 12:59:59;;;;;;;0.93;0.85;;;;;;;;;;4951397;28;20219;-62
2023/08/28 13:02:26;;;;;;;1.58;0.70;;;;;;;;;;4939724;28;20231;-60
2023/08/28 13:04:54;;;;;;;1.45;1.02;;;;;;;;;;4943345;28;20238;-61
2023/08/28 13:07:21;;;;;;;1.02;0.70;;;;;;;;;;4948109;28;20321;-60
2023/08/28 13:09:48;;;;;;;0.70;0.65;;;;;;;;;;4952977;28;20220;-62
2023/08/28 13:12:15;;;;;;;1.00;0.85;;;;;;;;;;4937901;28;20224;-62
2023/08/28 13:14:42;;;;;;;1.10;0.52;;;;;;;;;;4945483;28;20252;-62
2023/08/28 13:17:10;;;;;;;1.20;0.82;;;;;;;;;;4951983;28;20227;-61
2023/08/28 13:19:37;;;;;;;1.00;0.90;;;;;;;;;;4954797;28;20286;-61
2023/08/28 13:22:05;;;;;;;1.15;0.80;;;;;;;;;;4951429;28;20236;-61
2023/08/28 13:24:32;;;;;;;1.73;0.93;;;;;;;;;;4954512;28;20715;-62
2023/08/28 13:27:10;;;;;;;0.65;0.60;;;;;;;;;;4942525;28;20701;-61
2023/08/28 13:29:37;;;;;;;1.00;0.73;;;;;;;;;;4952965;28;20227;-62
2023/08/28 13:32:05;;;;;;;1.83;0.85;;;;;;;;;;4937617;28;20701;-62
2023/08/28 13:34:32;;;;;;;1.25;0.80;;;;;;;;;;4944611;28;20228;-62
2023/08/28 13:37:00;;;;;;;1.15;0.80;;;;;;;;;;4937164;28;20224;-60
2023/08/28 13:39:27;;;;;;;1.65;1.00;;;;;;;;;;4948741;28;20788;-60
2023/08/28 13:41:55;;;;;;;1.52;0.88;;;;;;;;;;4937052;28;20239;-61
2023/08/28 13:44:22;;;;;;;0.80;0.70;;;;;;;;;;4953264;28;20612;-61
2023/08/28 13:46:49;;;;;;;0.80;0.65;;;;;;;;;;4945820;28;20224;-62
2023/08/28 13:49:16;;;;;;;1.20;0.93;;;;;;;;;;4950120;28;20233;-61
2023/08/28 13:51:43;;;;;;;6.15;0.82;;;;;;;;;;4954898;28;20220;-62
2023/08/28 13:54:11;;;;;;;0.77;0.60;;;;;;;;;;4951502;28;20244;-62
2023/08/28 13:56:38;;;;;;;1.63;0.80;;;;;;;;;;4945276;28;20230;-63
2023/08/28 13:59:05;;;;;;;1.10;0.60;;;;;;;;;;4944081;28;20231;-63
2023/08/28 14:01:33;;;;;;;0.95;0.70;;;;;;;;;;4953621;29;20238;-61
2023/08/28 14:04:01;;;;;;;1.10;0.70;;;;;;;;;;4955638;28;20244;-59
2023/08/28 14:06:28;;;;;;;1.40;0.90;;;;;;;;;;4955640;29;20223;-61
2023/08/28 14:08:55;;;;;;;1.10;0.80;;;;;;;;;;4955357;28;20239;-61
2023/08/28 14:11:23;;;;;;;1.58;0.80;;;;;;;;;;4955323;28;20228;-60
2023/08/28 14:13:50;;;;;;;2.03;0.88;;;;;;;;;;4955781;28;20231;-61
2023/08/28 14:16:17;;;;;;;0.80;0.60;;;;;;;;;;4955893;28;20615;-61
2023/08/28 14:18:44;;;;;;;3.25;0.75;;;;;;;;;;4955216;28;20318;-62
2023/08/28 14:21:11;;;;;;;1.73;0.93;;;;;;;;;;4955670;28;20231;-61
2023/08/28 14:23:39;;;;;;;1.25;0.68;;;;;;;;;;4955328;28;20257;-60
2023/08/28 14:26:06;;;;;;;1.25;0.85;;;;;;;;;;4947799;28;20235;-61
2023/08/28 14:28:34;;;;;;;1.05;0.68;;;;;;;;;;4953666;28;20236;-61
2023/08/28 14:31:02;;;;;;;1.20;0.70;;;;;;;;;;4955594;28;20298;-61
2023/08/28 14:33:29;;;;;;;2.38;0.77;;;;;;;;;;4954259;28;20716;-61
2023/08/28 14:35:56;;;;;;;7.53;0.70;;;;;;;;;;4955076;28;20575;-60
2023/08/28 14:38:24;;;;;;;0.93;0.80;;;;;;;;;;4954269;28;20708;-60
2023/08/28 14:40:52;;;;;;;1.33;0.82;;;;;;;;;;4954320;28;20701;-60
2023/08/28 14:43:19;;;;;;;2.83;0.70;;;;;;;;;;4954570;28;20219;-58